createdAt,value
2023-03-18T00:01:33.445Z,5.80
2023-03-18T00:04:02.332Z,6.20
2023-03-18T00:06:31.002Z,6.10
2023-03-18T00:08:59.483Z,6.60
2023-03-18T00:11:28.130Z,7.10
2023-03-18T00:13:56.708Z,7.50
2023-03-18T00:16:27.289Z,7.00
2023-03-18T00:18:55.807Z,7.30
2023-03-18T00:21:24.743Z,6.10
2023-03-18T00:23:56.672Z,5.80
2023-03-18T00:26:27.377Z,6.70
2023-03-18T00:28:57.986Z,5.80
2023-03-18T00:31:28.509Z,6.60
2023-03-18T00:33:57.142Z,7.10
2023-03-18T00:36:28.441Z,7.60
2023-03-18T00:38:58.233Z,6.50
2023-03-18T00:41:28.353Z,6.80
2023-03-18T00:43:58.396Z,6.00
2023-03-18T00:46:37.992Z,5.80
2023-03-18T00:49:08.950Z,5.80
2023-03-18T00:51:38.598Z,6.50
2023-03-18T00:54:09.982Z,6.50
2023-03-18T00:56:39.776Z,7.20
2023-03-18T00:59:09.012Z,6.20
2023-03-18T01:01:39.077Z,6.10
2023-03-18T01:04:08.020Z,6.00
2023-03-18T01:06:38.649Z,6.40
2023-03-18T01:09:10.146Z,6.20
2023-03-18T01:11:39.314Z,6.40
2023-03-18T01:14:08.028Z,6.90
2023-03-18T01:16:36.685Z,6.30
2023-03-18T01:19:05.207Z,7.00
2023-03-18T01:21:34.003Z,7.20
2023-03-18T01:24:04.547Z,7.10
2023-03-18T01:26:34.675Z,7.10
2023-03-18T01:29:04.150Z,7.40
2023-03-18T01:31:34.871Z,7.60
2023-03-18T01:34:07.847Z,6.20
2023-03-18T01:36:45.046Z,6.90
2023-03-18T01:39:14.514Z,7.40
2023-03-18T01:41:43.094Z,7.20
2023-03-18T01:44:15.506Z,7.20
2023-03-18T01:46:50.103Z,8.50
2023-03-18T01:49:39.789Z,8.40
2023-03-18T01:52:20.915Z,6.60
2023-03-18T01:55:03.649Z,6.60
2023-03-18T01:57:34.149Z,6.80
2023-03-18T02:00:04.831Z,5.70
2023-03-18T02:02:44.898Z,6.90
2023-03-18T02:05:19.156Z,7.30
2023-03-18T02:07:47.983Z,7.30
2023-03-18T02:10:29.807Z,6.00
2023-03-18T02:13:06.856Z,5.80
2023-03-18T02:15:47.697Z,6.60
2023-03-18T02:18:25.327Z,6.30
2023-03-18T02:21:11.618Z,7.50
2023-03-18T02:24:01.877Z,7.60
2023-03-18T02:27:02.128Z,5.70
2023-03-18T02:29:38.625Z,7.20
2023-03-18T02:32:10.852Z,6.90
2023-03-18T02:34:41.020Z,7.30
2023-03-18T02:37:09.848Z,5.00
2023-03-18T02:39:39.669Z,5.00
2023-03-18T02:42:13.273Z,4.40
2023-03-18T02:44:47.202Z,4.80
2023-03-18T02:48:08.331Z,5.70
2023-03-18T02:50:36.871Z,5.40
2023-03-18T02:53:05.682Z,5.90
2023-03-18T02:55:34.166Z,7.60
2023-03-18T02:58:02.653Z,6.30
2023-03-18T03:00:31.805Z,5.60
2023-03-18T03:03:01.828Z,7.00
2023-03-18T03:05:30.312Z,6.30
2023-03-18T03:07:58.813Z,7.50
2023-03-18T03:10:27.591Z,8.20
2023-03-18T03:12:57.372Z,6.90
2023-03-18T03:15:26.845Z,6.30
2023-03-18T03:17:58.489Z,6.90
2023-03-18T03:20:27.169Z,6.50
2023-03-18T03:22:55.743Z,6.70
2023-03-18T03:25:24.150Z,6.80
2023-03-18T03:27:52.761Z,5.90
2023-03-18T03:30:23.053Z,5.30
2023-03-18T03:32:51.879Z,5.70
2023-03-18T03:35:21.591Z,5.00
2023-03-18T03:37:50.680Z,6.10
2023-03-18T03:40:20.578Z,5.60
2023-03-18T03:42:49.403Z,4.70
2023-03-18T03:45:19.346Z,5.90
2023-03-18T03:47:48.341Z,5.40
2023-03-18T03:50:18.304Z,4.70
2023-03-18T03:52:47.283Z,4.70
2023-03-18T03:55:19.684Z,4.30
2023-03-18T03:57:48.578Z,4.20
2023-03-18T04:00:21.392Z,5.40
2023-03-18T04:02:52.730Z,5.50
2023-03-18T04:05:24.861Z,4.90
2023-03-18T04:07:54.278Z,4.60
2023-03-18T04:10:32.334Z,4.80
2023-03-18T04:13:01.300Z,5.30
2023-03-18T04:15:29.933Z,4.90
2023-03-18T04:18:02.355Z,5.00
2023-03-18T04:20:32.083Z,4.60
2023-03-18T04:23:01.338Z,3.90
2023-03-18T04:25:30.724Z,5.30
2023-03-18T04:27:59.465Z,4.90
2023-03-18T04:30:28.454Z,4.90
2023-03-18T04:33:07.206Z,5.30
2023-03-18T04:35:37.805Z,5.50
2023-03-18T04:38:06.779Z,4.70
2023-03-18T04:40:35.384Z,5.20
2023-03-18T04:43:04.190Z,4.40
2023-03-18T04:45:32.779Z,4.70
2023-03-18T04:48:02.372Z,5.40
2023-03-18T04:50:33.376Z,4.90
2023-03-18T04:53:03.622Z,4.80
2023-03-18T04:55:32.686Z,5.20
2023-03-18T04:58:01.996Z,5.70
2023-03-18T05:00:32.113Z,5.20
2023-03-18T05:03:13.045Z,5.80
2023-03-18T05:05:42.261Z,5.00
2023-03-18T05:08:11.259Z,4.40
2023-03-18T05:10:40.389Z,4.90
2023-03-18T05:13:09.670Z,4.40
2023-03-18T05:15:38.517Z,4.30
2023-03-18T05:18:07.040Z,4.50
2023-03-18T05:20:36.229Z,4.70
2023-03-18T05:23:06.015Z,4.90
2023-03-18T05:25:50.066Z,5.80
2023-03-18T05:28:18.897Z,4.60
2023-03-18T05:30:54.033Z,4.80
2023-03-18T05:33:23.436Z,5.40
2023-03-18T05:35:57.110Z,5.90
2023-03-18T05:38:30.016Z,5.40
2023-03-18T05:40:58.919Z,5.30
2023-03-18T05:43:33.796Z,6.10
2023-03-18T05:46:02.605Z,5.30
2023-03-18T05:48:47.828Z,6.90
2023-03-18T05:51:16.269Z,6.50
2023-03-18T05:53:44.856Z,6.40
2023-03-18T05:56:26.461Z,6.50
2023-03-18T05:58:58.821Z,6.70
2023-03-18T06:01:44.797Z,6.10
2023-03-18T06:04:13.376Z,6.00
2023-03-18T06:06:42.304Z,6.50
2023-03-18T06:09:13.497Z,6.00
2023-03-18T06:11:44.713Z,6.40
2023-03-18T06:14:13.660Z,6.40
2023-03-18T06:16:43.445Z,4.60
2023-03-18T06:19:13.611Z,5.30
2023-03-18T06:21:42.638Z,5.90
2023-03-18T06:24:11.463Z,6.20
2023-03-18T06:26:40.025Z,7.00
2023-03-18T06:29:08.622Z,6.40
2023-03-18T06:31:37.861Z,6.40
2023-03-18T06:34:07.290Z,8.00
2023-03-18T06:36:37.733Z,7.70
2023-03-18T06:39:08.124Z,8.10
2023-03-18T06:41:37.311Z,6.90
2023-03-18T06:44:21.085Z,7.70
2023-03-18T06:46:49.726Z,7.60
2023-03-18T06:49:18.915Z,7.80
2023-03-18T06:51:51.839Z,7.80
2023-03-18T06:54:20.456Z,8.30
2023-03-18T06:56:50.237Z,8.80
2023-03-18T06:59:21.650Z,8.80
2023-03-18T07:01:50.637Z,7.90
2023-03-18T07:04:20.939Z,9.10
2023-03-18T07:06:50.236Z,8.70
2023-03-18T07:09:20.051Z,9.80
2023-03-18T07:11:53.769Z,10.30
2023-03-18T07:14:23.746Z,10.80
2023-03-18T07:16:52.555Z,9.60
2023-03-18T07:19:22.157Z,12.20
2023-03-18T07:21:51.084Z,10.70
2023-03-18T07:24:21.667Z,11.80
2023-03-18T07:26:53.739Z,11.60
2023-03-18T07:29:22.320Z,12.00
2023-03-18T07:31:51.352Z,11.30
2023-03-18T07:34:20.086Z,12.30
2023-03-18T07:36:48.729Z,11.50
2023-03-18T07:39:17.315Z,10.70
2023-03-18T07:41:45.790Z,11.40
2023-03-18T07:44:21.970Z,10.00
2023-03-18T07:46:50.510Z,11.60
2023-03-18T07:49:19.040Z,12.40
2023-03-18T07:51:47.484Z,11.90
2023-03-18T07:54:16.286Z,12.90
2023-03-18T07:56:44.894Z,12.00
2023-03-18T07:59:13.388Z,11.10
2023-03-18T08:01:42.087Z,13.10
2023-03-18T08:04:11.914Z,11.80
2023-03-18T08:06:40.426Z,12.10
2023-03-18T08:09:09.231Z,12.70
2023-03-18T08:11:38.305Z,13.60
2023-03-18T08:14:07.376Z,13.20
2023-03-18T08:16:35.883Z,12.70
2023-03-18T08:19:04.442Z,13.40
2023-03-18T08:21:32.903Z,12.10
2023-03-18T08:24:01.438Z,11.70
2023-03-18T08:26:30.030Z,14.50
2023-03-18T08:28:58.444Z,13.60
2023-03-18T08:31:26.969Z,12.60
2023-03-18T08:33:56.659Z,13.00
2023-03-18T08:36:27.149Z,15.70
2023-03-18T08:38:56.662Z,14.80
2023-03-18T08:41:26.308Z,14.70
2023-03-18T08:43:57.522Z,14.90
2023-03-18T08:46:26.179Z,15.60
2023-03-18T08:48:54.680Z,15.10
2023-03-18T08:51:23.367Z,14.60
2023-03-18T08:53:52.002Z,14.80
2023-03-18T08:56:20.688Z,16.30
2023-03-18T08:58:49.177Z,16.80
2023-03-18T09:01:19.926Z,17.20
2023-03-18T09:03:52.038Z,15.30
2023-03-18T09:06:21.128Z,15.90
2023-03-18T09:08:49.660Z,15.50
2023-03-18T09:11:18.728Z,16.80
2023-03-18T09:13:47.270Z,15.10
2023-03-18T09:16:16.167Z,15.30
2023-03-18T09:18:47.019Z,18.20
2023-03-18T09:21:17.433Z,16.90
2023-03-18T09:23:46.142Z,16.90
2023-03-18T09:26:15.061Z,16.20
2023-03-18T09:28:43.607Z,16.60
2023-03-18T09:31:13.199Z,14.50
2023-03-18T09:33:43.484Z,18.30
2023-03-18T09:36:11.960Z,15.10
2023-03-18T09:38:41.431Z,17.60
2023-03-18T09:41:35.631Z,15.70
2023-03-18T09:44:24.554Z,15.60
2023-03-18T09:47:42.234Z,12.80
2023-03-18T09:50:48.756Z,14.90
2023-03-18T09:53:31.859Z,15.00
2023-03-18T09:56:03.021Z,16.20
2023-03-18T09:59:14.965Z,14.50
2023-03-18T10:01:46.475Z,14.80
2023-03-18T10:04:26.884Z,14.20
2023-03-18T10:07:03.069Z,15.20
2023-03-18T10:09:39.379Z,16.60
2023-03-18T10:12:35.527Z,15.70
2023-03-18T10:15:20.742Z,15.70
2023-03-18T10:18:28.137Z,15.20
2023-03-18T10:21:09.245Z,16.00
2023-03-18T10:24:04.555Z,18.20
2023-03-18T10:26:56.591Z,17.00
2023-03-18T10:29:58.551Z,17.00
2023-03-18T10:32:52.369Z,17.00
2023-03-18T10:36:02.291Z,18.10
2023-03-18T10:38:32.440Z,18.10
2023-03-18T10:41:02.053Z,17.80
2023-03-18T10:43:32.774Z,16.40
2023-03-18T10:46:05.318Z,18.20
2023-03-18T10:48:40.226Z,16.40
2023-03-18T10:51:45.569Z,16.40
2023-03-18T10:54:39.626Z,18.70
2023-03-18T10:57:18.456Z,18.40
2023-03-18T10:59:47.812Z,17.00
2023-03-18T11:02:39.104Z,15.60
2023-03-18T11:05:23.738Z,17.50
2023-03-18T11:10:37.114Z,16.70
2023-03-18T11:13:06.663Z,16.60
2023-03-18T11:15:50.316Z,15.10
2023-03-18T11:18:24.643Z,16.20
2023-03-18T11:21:01.563Z,17.80
2023-03-18T11:23:56.524Z,17.00
2023-03-18T11:26:31.048Z,16.30
2023-03-18T11:29:11.004Z,17.20
2023-03-18T11:31:52.329Z,17.20
2023-03-18T11:34:21.573Z,16.00
2023-03-18T11:37:11.951Z,16.30
2023-03-18T11:39:41.760Z,15.30
2023-03-18T11:42:40.615Z,17.80
2023-03-18T11:45:40.860Z,16.50
2023-03-18T11:48:37.599Z,16.20
2023-03-18T11:51:35.209Z,15.70
2023-03-18T11:54:45.961Z,15.20
2023-03-18T11:57:50.087Z,16.20
2023-03-18T12:00:52.805Z,17.40
2023-03-18T12:04:03.679Z,16.30
2023-03-18T12:06:41.624Z,17.10
2023-03-18T12:09:37.099Z,15.70
2023-03-18T12:12:44.556Z,16.10
2023-03-18T12:15:23.530Z,17.10
2023-03-18T12:18:25.771Z,16.30
2023-03-18T12:21:15.450Z,16.70
2023-03-18T12:24:05.022Z,16.10
2023-03-18T12:27:14.564Z,17.10
2023-03-18T12:30:14.540Z,15.80
2023-03-18T12:32:56.454Z,15.30
2023-03-18T12:35:48.773Z,16.20
2023-03-18T12:38:38.507Z,19.20
2023-03-18T12:41:27.841Z,16.50
2023-03-18T12:44:23.039Z,17.00
2023-03-18T12:47:11.987Z,17.80
2023-03-18T12:50:00.954Z,15.60
2023-03-18T12:53:00.243Z,16.10
2023-03-18T12:55:37.052Z,15.90
2023-03-18T12:58:19.285Z,18.20
2023-03-18T13:01:09.906Z,17.70
2023-03-18T13:03:44.753Z,17.20
2023-03-18T13:06:44.639Z,18.50
2023-03-18T13:09:31.922Z,18.90
2023-03-18T13:12:16.660Z,17.30
2023-03-18T13:14:44.996Z,17.60
2023-03-18T13:17:20.889Z,17.50
2023-03-18T13:19:49.568Z,17.80
2023-03-18T13:23:09.859Z,19.30
2023-03-18T13:25:56.826Z,18.00
2023-03-18T13:28:50.343Z,17.60
2023-03-18T13:31:47.585Z,18.40
2023-03-18T13:34:57.176Z,15.90
2023-03-18T13:37:50.163Z,18.60
2023-03-18T13:41:07.819Z,16.40
2023-03-18T13:43:40.602Z,19.30
2023-03-18T13:46:33.137Z,17.50
2023-03-18T13:49:03.425Z,18.00
2023-03-18T13:51:32.144Z,16.20
2023-03-18T13:54:08.865Z,17.30
2023-03-18T13:56:43.354Z,17.20
2023-03-18T13:59:33.318Z,17.10
2023-03-18T14:02:29.599Z,18.60
2023-03-18T14:04:59.700Z,18.60
2023-03-18T14:07:28.740Z,17.40
2023-03-18T14:10:18.281Z,16.60
2023-03-18T14:12:48.596Z,17.70
2023-03-18T14:15:44.606Z,17.70
2023-03-18T14:18:28.397Z,17.00
2023-03-18T14:21:02.265Z,17.70
2023-03-18T14:23:40.084Z,17.40
2023-03-18T14:26:25.306Z,17.00
2023-03-18T14:29:22.679Z,17.10
2023-03-18T14:32:02.747Z,17.50
2023-03-18T14:34:55.478Z,17.60
2023-03-18T14:37:30.489Z,18.70
2023-03-18T14:40:17.883Z,16.20
2023-03-18T14:42:59.775Z,18.00
2023-03-18T14:45:35.617Z,17.70
2023-03-18T14:48:17.779Z,16.70
2023-03-18T14:50:52.374Z,18.00
2023-03-18T14:54:01.379Z,17.10
2023-03-18T14:56:36.968Z,16.60
2023-03-18T14:59:05.385Z,18.70
2023-03-18T15:01:44.467Z,17.40
2023-03-18T15:04:25.250Z,17.20
2023-03-18T15:06:56.911Z,15.70
2023-03-18T15:09:32.603Z,17.20
2023-03-18T15:12:16.700Z,15.50
2023-03-18T15:14:45.319Z,14.70
2023-03-18T15:17:17.356Z,18.10
2023-03-18T15:19:46.553Z,17.10
2023-03-18T15:22:28.528Z,15.60
2023-03-18T15:25:08.590Z,15.70
2023-03-18T15:27:37.481Z,16.20
2023-03-18T15:30:07.814Z,16.40
2023-03-18T15:32:49.974Z,15.60
2023-03-18T15:35:26.799Z,19.00
2023-03-18T15:38:19.360Z,19.10
2023-03-18T15:41:10.626Z,16.40
2023-03-18T15:43:45.154Z,17.60
2023-03-18T15:46:25.887Z,14.80
2023-03-18T15:48:57.664Z,17.30
2023-03-18T15:51:48.139Z,15.70
2023-03-18T15:54:24.954Z,14.90
2023-03-18T15:56:55.337Z,15.00
2023-03-18T15:59:35.034Z,12.90
2023-03-18T16:02:05.980Z,15.30
2023-03-18T16:04:35.574Z,14.60
2023-03-18T16:07:04.570Z,14.40
2023-03-18T16:09:34.703Z,15.80
2023-03-18T16:12:13.980Z,14.40
2023-03-18T16:14:45.486Z,16.90
2023-03-18T16:17:15.902Z,15.50
2023-03-18T16:19:45.825Z,16.50
2023-03-18T16:22:15.440Z,17.70
2023-03-18T16:24:44.348Z,19.20
2023-03-18T16:27:41.154Z,19.00
2023-03-18T16:30:23.302Z,18.20
2023-03-18T16:32:53.207Z,17.40
2023-03-18T16:35:34.073Z,18.80
2023-03-18T16:38:02.776Z,18.30
2023-03-18T16:40:33.333Z,19.70
2023-03-18T16:43:02.312Z,18.90
2023-03-18T16:45:33.970Z,19.30
2023-03-18T16:48:06.914Z,20.40
2023-03-18T16:50:39.221Z,21.90
2023-03-18T16:53:18.151Z,21.10
2023-03-18T16:55:54.017Z,22.40
2023-03-18T16:58:30.739Z,22.80
2023-03-18T17:01:00.208Z,21.80
2023-03-18T17:03:29.454Z,23.30
2023-03-18T17:05:58.503Z,24.40
2023-03-18T17:08:26.979Z,23.80
2023-03-18T17:10:59.722Z,20.80
2023-03-18T17:13:32.290Z,20.70
2023-03-18T17:16:01.862Z,21.80
2023-03-18T17:18:30.349Z,22.90
2023-03-18T17:20:58.849Z,27.10
2023-03-18T17:23:28.709Z,29.00
2023-03-18T17:26:00.329Z,28.30
2023-03-18T17:28:35.982Z,27.80
2023-03-18T17:31:05.257Z,28.10
2023-03-18T17:33:36.080Z,31.60
2023-03-18T17:36:07.004Z,34.60
2023-03-18T17:38:36.294Z,33.60
2023-03-18T17:41:14.352Z,34.80
2023-03-18T17:43:42.908Z,30.50
2023-03-18T17:46:11.554Z,30.40
2023-03-18T17:48:41.207Z,31.40
2023-03-18T17:51:19.098Z,29.70
2023-03-18T17:53:59.201Z,30.80
2023-03-18T17:56:28.919Z,29.80
2023-03-18T17:58:57.418Z,28.70
2023-03-18T18:01:29.030Z,30.10
2023-03-18T18:03:59.835Z,28.40
2023-03-18T18:06:29.856Z,30.50
2023-03-18T18:09:00.716Z,29.10
2023-03-18T18:11:38.017Z,27.60
2023-03-18T18:14:29.086Z,27.60
2023-03-18T18:16:57.653Z,24.70
2023-03-18T18:19:26.221Z,20.80
2023-03-18T18:21:55.216Z,22.10
2023-03-18T18:24:29.232Z,22.80
2023-03-18T18:26:58.407Z,23.30
2023-03-18T18:29:29.647Z,23.10
2023-03-18T18:31:58.384Z,22.10
2023-03-18T18:34:26.784Z,18.40
2023-03-18T18:36:55.303Z,21.80
2023-03-18T18:39:24.485Z,23.00
2023-03-18T18:41:53.113Z,21.40
2023-03-18T18:44:22.425Z,21.00
2023-03-18T18:46:50.957Z,18.10
2023-03-18T18:49:24.545Z,18.60
2023-03-18T18:51:55.771Z,21.30
2023-03-18T18:54:25.262Z,21.10
2023-03-18T18:56:53.734Z,18.00
2023-03-18T18:59:27.110Z,18.90
2023-03-18T19:01:56.962Z,17.20
2023-03-18T19:04:25.418Z,18.50
2023-03-18T19:06:54.198Z,18.70
2023-03-18T19:09:26.072Z,18.60
2023-03-18T19:11:56.602Z,17.50
2023-03-18T19:14:29.638Z,18.20
2023-03-18T19:16:59.931Z,18.70
2023-03-18T19:19:31.593Z,21.70
2023-03-18T19:22:00.568Z,20.30
2023-03-18T19:24:31.575Z,18.00
2023-03-18T19:27:03.338Z,16.80
2023-03-18T19:29:35.709Z,16.90
2023-03-18T19:32:04.609Z,19.20
2023-03-18T19:34:34.014Z,18.60
2023-03-18T19:37:06.022Z,17.50
2023-03-18T19:39:34.382Z,18.10
2023-03-18T19:42:02.818Z,18.10
2023-03-18T19:44:31.365Z,16.40
2023-03-18T19:47:01.266Z,17.40
2023-03-18T19:49:35.257Z,17.60
2023-03-18T19:52:17.333Z,18.00
2023-03-18T19:54:47.650Z,15.60
2023-03-18T19:57:20.408Z,17.10
2023-03-18T19:59:50.492Z,16.60
2023-03-18T20:02:30.650Z,16.30
2023-03-18T20:05:02.342Z,16.60
2023-03-18T20:07:35.440Z,17.80
2023-03-18T20:10:04.362Z,15.10
2023-03-18T20:12:49.399Z,16.80
2023-03-18T20:15:25.259Z,17.70
2023-03-18T20:17:54.091Z,17.70
2023-03-18T20:20:31.485Z,16.90
2023-03-18T20:23:03.609Z,17.10
2023-03-18T20:25:42.490Z,16.90
2023-03-18T20:28:17.804Z,17.00
2023-03-18T20:30:50.858Z,15.90
2023-03-18T20:33:20.799Z,14.50
2023-03-18T20:35:52.660Z,15.50
2023-03-18T20:38:24.746Z,14.70
2023-03-18T20:40:53.420Z,15.70
2023-03-18T20:43:24.163Z,15.70
2023-03-18T20:45:53.161Z,17.20
2023-03-18T20:48:25.104Z,18.50
2023-03-18T20:50:55.405Z,18.90
2023-03-18T20:53:28.713Z,16.40
2023-03-18T20:55:57.737Z,17.70
2023-03-18T20:58:29.255Z,17.70
2023-03-18T21:00:57.959Z,18.10
2023-03-18T21:03:30.749Z,16.60
2023-03-18T21:06:01.701Z,14.70
2023-03-18T21:08:32.188Z,18.40
2023-03-18T21:11:02.191Z,16.30
2023-03-18T21:13:39.120Z,17.20
2023-03-18T21:16:14.667Z,17.40
2023-03-18T21:18:45.924Z,17.60
2023-03-18T21:21:20.826Z,19.00
2023-03-18T21:23:49.937Z,21.60
2023-03-18T21:26:18.844Z,19.50
2023-03-18T21:28:47.263Z,20.20
2023-03-18T21:31:24.352Z,18.10
2023-03-18T21:33:53.691Z,18.80
2023-03-18T21:36:22.623Z,21.70
2023-03-18T21:38:51.088Z,18.50
2023-03-18T21:41:28.141Z,20.70
2023-03-18T21:43:56.846Z,20.90
2023-03-18T21:46:28.588Z,23.10
2023-03-18T21:48:57.403Z,21.00
2023-03-18T21:51:39.897Z,20.20
2023-03-18T21:54:19.313Z,23.90
2023-03-18T21:56:47.805Z,24.50
2023-03-18T21:59:16.478Z,21.10
2023-03-18T22:01:44.955Z,21.20
2023-03-18T22:04:13.550Z,22.00
2023-03-18T22:06:42.028Z,19.10
2023-03-18T22:09:10.842Z,21.00
2023-03-18T22:11:39.372Z,21.30
2023-03-18T22:14:13.494Z,20.00
2023-03-18T22:19:10.132Z,19.10
2023-03-18T22:21:38.510Z,17.80
2023-03-18T22:24:10.602Z,19.40
2023-03-18T22:26:39.019Z,16.30
2023-03-18T22:29:07.419Z,18.40
2023-03-18T22:31:42.484Z,17.50
2023-03-18T22:34:24.219Z,17.80
2023-03-18T22:36:53.647Z,19.60
2023-03-18T22:39:22.110Z,16.20
2023-03-18T22:41:50.465Z,16.00
2023-03-18T22:44:24.318Z,16.90
2023-03-18T22:46:52.777Z,16.50
2023-03-18T22:49:21.204Z,18.40
2023-03-18T22:51:49.674Z,17.80
2023-03-18T22:54:19.157Z,17.90
2023-03-18T22:56:47.574Z,18.10
2023-03-18T22:59:16.173Z,16.60
2023-03-18T23:01:44.736Z,16.50
2023-03-18T23:04:13.384Z,17.50
2023-03-18T23:06:41.849Z,16.50
2023-03-18T23:09:10.285Z,15.90
2023-03-18T23:11:38.742Z,18.10
2023-03-18T23:14:10.681Z,18.20
2023-03-18T23:16:39.162Z,16.70
2023-03-18T23:19:07.569Z,18.40
2023-03-18T23:21:35.977Z,16.30
2023-03-18T23:24:04.675Z,17.40
2023-03-18T23:26:33.176Z,16.90
2023-03-18T23:29:02.925Z,17.80
2023-03-18T23:31:32.223Z,17.40
2023-03-18T23:34:00.761Z,15.10
2023-03-18T23:36:29.160Z,15.50
2023-03-18T23:38:57.740Z,16.50
2023-03-18T23:41:26.216Z,14.00
2023-03-18T23:43:54.769Z,16.10
2023-03-18T23:46:23.263Z,17.30
2023-03-18T23:48:51.788Z,17.20
2023-03-18T23:51:20.215Z,15.30
2023-03-18T23:53:48.636Z,15.30
2023-03-18T23:56:17.456Z,16.50
2023-03-18T23:58:46.004Z,15.60
